LRCD weather

Aerodromul Măgura
Sibiu, Romania

Public forecast

Using degrees Celsius for public forecast. Weather courtesy of forecast.io.

Closest aviation weather report (METAR) to Aerodromul Măgura

Closest report is Sibiu International Airport, 4.2 nm (7.9 km) NW. Retrieved 2019/10/18 12:30 UTC (13 minutes ago):

LRSB 181230Z 13003KT 100V170 CAVOK 22/08 Q1018

Closest aviation forecast (TAF) to Aerodromul Măgura

Closest forecast is Sibiu International Airport, 4.2 nm (7.9 km) NW. Retrieved 2019/10/18 12:31 UTC (12 minutes ago):

TAF LRSB 181100Z 1812/1912 VRB04KT CAVOK BECMG 1900/1902 5000 BR TEMPO 1902/1906 1500 BR BECMG 1906/1908 9999 NSW